Time;durP1;ratioP1;P1;durP2;ratioP2;P2;SDS_P1;SDS_P2;PMS_P1;PMS_P2;Temp;Humidity;BMP_temperature;BMP_pressure;BME280_temperature;BME280_humidity;BME280_pressure;Samples;Min_cycle;Max_cycle;Signal;HPM_P1;HPM_P2
2022/07/01 00:00:32;;;;;;;0.90;0.70;;;17.10;1.00;;;;;;4975619;28;20023;-80
2022/07/01 00:02:58;;;;;;;2.83;0.60;;;17.20;1.00;;;;;;4975461;28;20034;-80
2022/07/01 00:05:24;;;;;;;2.90;0.70;;;16.80;1.00;;;;;;4975151;28;20167;-81
2022/07/01 00:07:49;;;;;;;2.45;0.70;;;16.80;1.00;;;;;;4975791;28;20058;-80
2022/07/01 00:10:15;;;;;;;1.60;0.98;;;16.80;1.00;;;;;;4975830;28;20035;-80
2022/07/01 00:12:41;;;;;;;2.40;1.00;;;16.80;1.00;;;;;;4975243;28;20479;-80
2022/07/01 00:15:07;;;;;;;4.63;0.95;;;16.70;1.00;;;;;;4975166;28;20070;-80
2022/07/01 00:17:33;;;;;;;1.92;0.73;;;17.00;1.00;;;;;;4975251;28;20043;-80
2022/07/01 00:19:59;;;;;;;1.55;0.80;;;17.00;1.00;;;;;;4974889;28;20031;-80
2022/07/01 00:22:25;;;;;;;3.13;0.65;;;16.60;1.00;;;;;;4976162;28;20121;-80
2022/07/01 00:24:51;;;;;;;3.13;0.85;;;16.70;1.00;;;;;;4975051;28;20038;-80
2022/07/01 00:27:17;;;;;;;4.28;1.45;;;16.40;1.00;;;;;;4974825;28;20038;-81
2022/07/01 00:29:42;;;;;;;1.77;0.80;;;16.40;1.00;;;;;;4975755;28;20031;-80
2022/07/01 00:32:09;;;;;;;3.40;1.10;;;16.40;1.00;;;;;;4974831;28;20113;-81
2022/07/01 00:34:34;;;;;;;1.33;0.80;;;16.20;1.00;;;;;;4975373;28;20389;-80
2022/07/01 00:37:00;;;;;;;2.42;0.80;;;16.40;1.00;;;;;;4974756;28;20034;-81
2022/07/01 00:39:26;;;;;;;1.33;0.80;;;16.40;1.00;;;;;;4974848;28;20114;-80
2022/07/01 00:41:52;;;;;;;2.47;0.95;;;16.30;1.00;;;;;;4974529;28;20026;-80
2022/07/01 00:44:20;;;;;;;2.95;0.70;;;15.90;1.00;;;;;;4957638;28;20042;-80
2022/07/01 00:46:49;;;;;;;4.18;0.90;;;15.80;1.00;;;;;;4974797;28;20034;-81
2022/07/01 00:49:15;;;;;;;1.50;0.65;;;16.00;1.00;;;;;;4974019;28;20031;-80
2022/07/01 00:51:41;;;;;;;0.93;0.52;;;16.10;1.00;;;;;;4973598;28;20043;-80
2022/07/01 00:54:07;;;;;;;1.65;0.70;;;16.20;1.00;;;;;;4974412;28;20022;-80
2022/07/01 00:56:33;;;;;;;2.30;0.52;;;16.30;1.00;;;;;;4974367;28;20026;-80
2022/07/01 00:58:59;;;;;;;1.00;0.50;;;16.50;1.00;;;;;;4974405;28;20795;-80
2022/07/01 01:01:25;;;;;;;1.50;0.60;;;16.40;1.00;;;;;;4975275;28;20123;-81
2022/07/01 01:03:50;;;;;;;0.90;0.55;;;16.30;1.00;;;;;;4974248;28;20073;-80
2022/07/01 01:06:16;;;;;;;2.00;0.55;;;16.30;1.00;;;;;;4974150;28;20027;-80
2022/07/01 01:08:42;;;;;;;0.73;0.43;;;16.40;1.00;;;;;;4974574;28;20105;-80
2022/07/01 01:11:08;;;;;;;0.43;0.30;;;16.40;1.00;;;;;;4974228;28;20034;-80
2022/07/01 01:13:34;;;;;;;0.55;0.30;;;16.40;1.00;;;;;;4975072;28;20538;-80
2022/07/01 01:16:00;;;;;;;1.15;0.30;;;16.40;1.00;;;;;;4974146;28;20019;-81
2022/07/01 01:18:26;;;;;;;0.98;0.40;;;16.60;1.00;;;;;;4973769;28;20105;-80
2022/07/01 01:20:55;;;;;;;0.30;0.30;;;16.60;1.00;;;;;;4973931;28;20491;-80
2022/07/01 01:23:21;;;;;;;0.88;0.47;;;16.50;1.00;;;;;;4974232;28;20035;-80
2022/07/01 01:25:49;;;;;;;1.27;0.40;;;16.30;1.00;;;;;;4974256;28;20042;-80
2022/07/01 01:28:15;;;;;;;0.82;0.40;;;16.20;1.00;;;;;;4973696;28;20042;-80
2022/07/01 01:30:41;;;;;;;1.13;0.50;;;16.10;1.00;;;;;;4974205;28;20051;-80
2022/07/01 01:33:08;;;;;;;1.30;0.50;;;16.20;1.00;;;;;;4973607;28;20046;-81
2022/07/01 01:35:34;;;;;;;1.05;0.38;;;16.20;1.00;;;;;;4973732;28;20084;-80
2022/07/01 01:38:00;;;;;;;1.15;0.50;;;16.00;1.00;;;;;;4973805;28;20026;-80
2022/07/01 01:40:26;;;;;;;0.70;0.55;;;16.00;1.00;;;;;;4974563;28;20133;-80
2022/07/01 01:42:52;;;;;;;1.02;0.50;;;16.10;1.00;;;;;;4973613;28;20066;-80
2022/07/01 01:45:17;;;;;;;3.22;0.60;;;16.20;1.00;;;;;;4950921;28;20026;-81
2022/07/01 01:47:43;;;;;;;1.05;0.60;;;16.20;1.00;;;;;;4973502;28;20039;-81
2022/07/01 01:50:11;;;;;;;2.00;0.65;;;16.20;1.00;;;;;;4958432;28;20027;-80
2022/07/01 01:52:42;;;;;;;1.77;0.50;;;16.30;1.00;;;;;;4952814;28;20038;-80
2022/07/01 01:55:09;;;;;;;0.95;0.45;;;15.90;1.00;;;;;;4973787;28;20058;-81
2022/07/01 01:57:34;;;;;;;1.17;0.60;;;15.90;1.00;;;;;;4973602;28;20033;-80
2022/07/01 02:00:00;;;;;;;0.75;0.50;;;16.10;1.00;;;;;;4972817;28;20408;-81
2022/07/01 02:02:26;;;;;;;2.28;0.80;;;16.10;1.00;;;;;;4973380;28;20108;-80
2022/07/01 02:04:52;;;;;;;1.35;0.70;;;16.20;1.00;;;;;;4973105;28;20114;-80
2022/07/01 02:07:18;;;;;;;1.17;0.60;;;16.00;1.00;;;;;;4973925;28;20022;-79
2022/07/01 02:09:43;;;;;;;0.70;0.60;;;15.80;1.00;;;;;;4972985;28;20096;-81
2022/07/01 02:12:09;;;;;;;0.50;0.40;;;15.80;1.00;;;;;;4973011;28;20039;-80
2022/07/01 02:14:35;;;;;;;0.40;0.40;;;15.90;1.00;;;;;;4972859;28;20030;-80
2022/07/01 02:17:00;;;;;;;1.55;0.32;;;15.90;1.00;;;;;;4972886;28;20191;-80
2022/07/01 02:19:26;;;;;;;0.75;0.50;;;16.00;1.00;;;;;;4973719;28;20539;-80
2022/07/01 02:21:52;;;;;;;0.95;0.40;;;16.10;1.00;;;;;;4972915;28;20142;-80
2022/07/01 02:24:18;;;;;;;0.43;0.40;;;16.00;1.00;;;;;;4972932;28;20031;-80
2022/07/01 02:26:44;;;;;;;0.43;0.43;;;16.10;1.00;;;;;;4973121;28;20085;-80
2022/07/01 02:29:10;;;;;;;1.65;0.60;;;16.10;1.00;;;;;;4957402;28;20466;-81
2022/07/01 02:31:35;;;;;;;1.00;0.40;;;16.00;1.00;;;;;;4973343;28;20042;-80
2022/07/01 02:34:01;;;;;;;1.20;0.50;;;16.00;1.00;;;;;;4973048;28;20049;-80
2022/07/01 02:36:26;;;;;;;2.40;0.60;;;15.90;1.00;;;;;;4972732;28;20031;-80
2022/07/01 02:38:52;;;;;;;0.73;0.50;;;16.00;1.00;;;;;;4972562;28;20094;-80
2022/07/01 02:41:18;;;;;;;0.73;0.40;;;16.20;1.00;;;;;;4955064;28;20050;-80
2022/07/01 02:43:43;;;;;;;0.65;0.50;;;16.20;1.00;;;;;;4972813;28;20468;-80
2022/07/01 02:46:09;;;;;;;1.35;0.32;;;16.00;1.00;;;;;;4972109;28;20113;-80
2022/07/01 02:48:34;;;;;;;1.38;0.57;;;15.90;1.00;;;;;;4972759;28;20038;-80
2022/07/01 02:51:00;;;;;;;1.15;0.47;;;15.80;1.00;;;;;;4972170;28;20037;-80
2022/07/01 02:53:25;;;;;;;0.50;0.40;;;15.80;1.00;;;;;;4972948;28;20058;-80
2022/07/01 02:55:51;;;;;;;2.47;0.40;;;15.90;1.00;;;;;;4972704;28;20022;-80
2022/07/01 02:58:17;;;;;;;0.60;0.60;;;15.70;1.00;;;;;;4972515;28;20035;-80
2022/07/01 03:00:42;;;;;;;0.70;0.52;;;15.70;1.00;;;;;;4972362;28;20038;-80
2022/07/01 03:03:08;;;;;;;1.83;0.57;;;15.80;1.00;;;;;;4972740;28;20027;-80
2022/07/01 03:05:34;;;;;;;0.52;0.52;;;15.80;1.00;;;;;;4972644;28;20042;-80
2022/07/01 03:07:59;;;;;;;0.50;0.50;;;15.60;1.00;;;;;;4972599;28;20033;-80
2022/07/01 03:10:25;;;;;;;1.90;0.60;;;15.50;1.00;;;;;;4973017;28;20376;-80
2022/07/01 03:12:51;;;;;;;2.13;0.50;;;15.60;1.00;;;;;;4972072;28;20031;-80
2022/07/01 03:15:16;;;;;;;1.50;0.50;;;15.80;1.00;;;;;;4973122;28;20062;-80
2022/07/01 03:17:48;;;;;;;1.35;0.50;;;16.00;1.00;;;;;;4976582;28;20078;-80
2022/07/01 03:20:15;;;;;;;2.88;0.80;;;16.10;1.00;;;;;;4961459;28;20034;-80
2022/07/01 03:22:42;;;;;;;0.50;0.50;;;16.10;1.00;;;;;;4976704;28;20097;-80
2022/07/01 03:25:08;;;;;;;1.10;0.40;;;16.20;1.00;;;;;;4976777;28;20027;-80
2022/07/01 03:27:34;;;;;;;1.60;0.50;;;16.10;1.00;;;;;;4958524;28;20388;-80
2022/07/01 03:30:01;;;;;;;2.28;0.60;;;16.00;1.00;;;;;;4975762;28;20026;-80
2022/07/01 03:32:26;;;;;;;0.50;0.50;;;15.90;1.00;;;;;;4976114;28;20027;-80
2022/07/01 03:34:53;;;;;;;1.88;0.55;;;15.90;1.00;;;;;;4976095;28;20030;-80
2022/07/01 03:37:20;;;;;;;3.70;0.70;;;15.90;1.00;;;;;;4976868;28;20034;-80
2022/07/01 03:39:47;;;;;;;0.55;0.55;;;15.80;1.00;;;;;;4975830;28;20090;-80
2022/07/01 03:42:12;;;;;;;1.40;0.60;;;15.60;1.00;;;;;;4975469;28;20550;-80
2022/07/01 03:44:38;;;;;;;1.45;0.60;;;15.80;1.00;;;;;;4975974;28;20054;-80
2022/07/01 03:47:08;;;;;;;0.95;0.50;;;15.90;1.00;;;;;;4975790;28;20467;-80
2022/07/01 03:49:34;;;;;;;1.63;0.50;;;16.00;1.00;;;;;;4976401;28;20031;-79
2022/07/01 03:52:02;;;;;;;0.85;0.50;;;15.90;1.00;;;;;;4975919;28;20035;-80
2022/07/01 03:54:32;;;;;;;1.45;0.30;;;16.00;1.00;;;;;;4975630;28;20043;-80
2022/07/01 03:56:59;;;;;;;2.63;0.52;;;16.10;1.00;;;;;;4975188;28;20395;-79
2022/07/01 03:59:27;;;;;;;2.33;0.60;;;16.00;1.00;;;;;;4975434;28;20066;-80
2022/07/01 04:01:54;;;;;;;0.73;0.55;;;16.00;1.00;;;;;;4975638;28;20384;-79
2022/07/01 04:04:19;;;;;;;3.75;0.65;;;16.20;1.00;;;;;;4976136;28;20031;-80
2022/07/01 04:06:46;;;;;;;3.60;0.57;;;16.10;1.00;;;;;;4975378;28;20037;-80
2022/07/01 04:09:14;;;;;;;0.75;0.52;;;16.00;1.00;;;;;;4975380;28;20035;-80
2022/07/01 04:11:40;;;;;;;1.08;0.50;;;16.00;1.00;;;;;;4975462;28;20038;-80
2022/07/01 04:14:06;;;;;;;1.50;0.57;;;16.10;1.00;;;;;;4975255;28;20027;-80
2022/07/01 04:16:32;;;;;;;1.02;0.50;;;16.00;1.00;;;;;;4958265;28;20376;-80
2022/07/01 04:18:58;;;;;;;2.40;0.52;;;16.20;1.00;;;;;;4975555;28;20029;-80
2022/07/01 04:24:08;;;;;;;2.80;0.70;;;15.90;1.00;;;;;;4975450;28;20034;-80
2022/07/01 04:26:34;;;;;;;1.27;0.73;;;15.90;1.00;;;;;;4974623;28;20037;-79
2022/07/01 04:29:00;;;;;;;1.58;0.60;;;15.70;1.00;;;;;;4975079;28;20035;-80
2022/07/01 04:31:26;;;;;;;1.08;0.73;;;15.70;1.00;;;;;;4975664;28;20050;-80
2022/07/01 04:33:51;;;;;;;0.90;0.80;;;15.70;1.00;;;;;;4975163;28;20031;-80
2022/07/01 04:36:18;;;;;;;2.25;0.75;;;15.80;1.00;;;;;;4974650;28;20502;-80
2022/07/01 04:38:43;;;;;;;0.88;0.73;;;15.60;1.00;;;;;;4975161;28;20027;-80
2022/07/01 04:43:53;;;;;;;1.25;0.80;;;15.60;1.00;;;;;;4973255;28;20514;-80
2022/07/01 04:46:19;;;;;;;0.73;0.73;;;15.50;1.00;;;;;;4975262;28;20023;-80
2022/07/01 04:48:44;;;;;;;0.77;0.77;;;15.50;1.00;;;;;;4974821;28;20118;-80
2022/07/01 04:51:10;;;;;;;1.00;0.90;;;15.50;1.00;;;;;;4974585;28;20031;-80
2022/07/01 04:53:35;;;;;;;1.50;0.90;;;15.70;1.00;;;;;;4974978;28;20117;-80
2022/07/01 04:56:01;;;;;;;1.95;0.75;;;15.40;1.00;;;;;;4974323;28;20618;-80
2022/07/01 04:58:27;;;;;;;1.70;0.65;;;15.80;1.00;;;;;;4975350;28;20054;-79
2022/07/01 05:00:52;;;;;;;1.92;0.82;;;15.60;1.00;;;;;;4974452;28;20033;-79
2022/07/01 05:03:18;;;;;;;0.80;0.60;;;15.80;1.00;;;;;;4974591;28;20027;-80
2022/07/01 05:05:44;;;;;;;0.50;0.50;;;15.60;1.00;;;;;;4974504;28;20030;-80
2022/07/01 05:08:10;;;;;;;0.70;0.70;;;15.70;1.00;;;;;;4974684;28;20062;-80
2022/07/01 05:10:36;;;;;;;1.02;0.60;;;15.70;1.00;;;;;;4974778;28;20022;-80
2022/07/01 05:13:02;;;;;;;0.50;0.40;;;15.60;1.00;;;;;;4974221;28;20063;-79
2022/07/01 05:15:28;;;;;;;1.05;0.50;;;15.70;1.00;;;;;;4974066;28;20049;-80
2022/07/01 05:23:22;;;;;;;0.50;0.40;;;15.90;1.00;;;;;;4960539;28;20033;-80
2022/07/01 05:25:48;;;;;;;1.95;0.75;;;15.90;1.00;;;;;;4973968;28;20390;-80
2022/07/01 05:28:14;;;;;;;0.50;0.50;;;16.00;1.00;;;;;;4974479;28;20059;-80
2022/07/01 05:30:40;;;;;;;2.35;0.65;;;15.90;1.00;;;;;;4973696;28;20066;-80
2022/07/01 05:33:05;;;;;;;1.10;0.40;;;15.90;1.00;;;;;;4973885;28;20054;-80
2022/07/01 05:35:31;;;;;;;0.98;0.95;;;16.00;1.00;;;;;;4974266;28;20058;-80
2022/07/01 05:37:57;;;;;;;1.20;0.50;;;16.20;1.00;;;;;;4955054;28;20031;-80
2022/07/01 05:40:23;;;;;;;3.75;0.80;;;16.30;1.00;;;;;;4974011;28;20063;-81
2022/07/01 05:42:48;;;;;;;2.45;1.20;;;16.50;1.00;;;;;;4956014;28;20023;-80
2022/07/01 05:45:14;;;;;;;2.35;1.30;;;16.40;1.00;;;;;;4973509;28;20029;-80
2022/07/01 05:47:40;;;;;;;4.20;1.70;;;16.30;1.00;;;;;;4973483;28;20086;-80
2022/07/01 05:50:06;;;;;;;1.50;1.40;;;16.20;1.00;;;;;;4973616;28;20030;-80
2022/07/01 05:52:32;;;;;;;2.05;1.35;;;16.20;1.00;;;;;;4973727;28;20518;-80
2022/07/01 05:54:58;;;;;;;1.77;1.10;;;16.20;1.00;;;;;;4973639;28;20027;-79
2022/07/01 05:57:23;;;;;;;1.13;0.98;;;16.20;1.00;;;;;;4973306;28;20034;-80
2022/07/01 05:59:49;;;;;;;2.30;1.10;;;16.20;1.00;;;;;;4973369;28;20487;-80
2022/07/01 06:02:14;;;;;;;2.05;1.20;;;16.30;1.00;;;;;;4973629;28;20025;-80
2022/07/01 06:04:42;;;;;;;1.70;0.93;;;16.20;1.00;;;;;;4973419;28;20031;-80
2022/07/01 06:07:10;;;;;;;1.88;1.20;;;16.20;1.00;;;;;;4951068;28;20030;-79
2022/07/01 06:09:36;;;;;;;1.60;1.20;;;16.20;1.00;;;;;;4972456;28;20117;-80
2022/07/01 06:12:02;;;;;;;3.05;1.15;;;16.50;1.00;;;;;;4972606;28;20081;-80
2022/07/01 06:14:28;;;;;;;2.70;1.02;;;16.70;1.00;;;;;;4973035;28;20056;-79
2022/07/01 06:16:53;;;;;;;2.35;1.30;;;16.90;1.00;;;;;;4973136;28;20444;-80
2022/07/01 06:19:19;;;;;;;3.38;1.30;;;16.90;1.00;;;;;;4973140;28;20090;-80
2022/07/01 06:21:46;;;;;;;1.80;1.45;;;17.20;1.00;;;;;;4972723;28;20052;-80
2022/07/01 06:24:11;;;;;;;1.67;1.15;;;17.50;1.00;;;;;;4972569;28;20027;-80
2022/07/01 06:26:38;;;;;;;2.30;1.67;;;17.70;1.00;;;;;;4973300;28;20474;-80
2022/07/01 06:29:04;;;;;;;1.83;1.73;;;17.40;1.00;;;;;;4976037;28;20039;-81
2022/07/01 06:31:33;;;;;;;2.45;2.13;;;17.60;1.00;;;;;;4974557;28;20031;-81
2022/07/01 06:33:58;;;;;;;3.75;2.33;;;17.30;1.00;;;;;;4972731;28;20570;-81
2022/07/01 06:36:24;;;;;;;2.53;2.33;;;16.80;1.00;;;;;;4972086;28;20106;-78
2022/07/01 06:38:49;;;;;;;3.13;2.78;;;17.10;1.00;;;;;;4972512;28;20411;-78
2022/07/01 06:41:27;;;;;;;2.83;2.63;;;17.10;1.00;;;;;;4972174;28;20073;-78
2022/07/01 06:43:57;;;;;;;3.13;2.80;;;17.40;1.00;;;;;;4973229;28;20031;-79
2022/07/01 06:46:23;;;;;;;4.28;2.67;;;17.50;1.00;;;;;;4971462;28;20173;-78
2022/07/01 06:48:48;;;;;;;2.88;2.60;;;18.10;1.00;;;;;;4972377;28;20041;-79
2022/07/01 06:51:14;;;;;;;2.88;2.67;;;17.90;1.00;;;;;;4971385;28;20210;-79
2022/07/01 06:53:40;;;;;;;2.72;2.53;;;17.80;1.00;;;;;;4972605;28;20037;-78
2022/07/01 06:56:06;;;;;;;2.53;2.33;;;17.90;1.00;;;;;;4972538;28;20031;-78
2022/07/01 06:58:32;;;;;;;2.20;2.00;;;17.80;1.00;;;;;;4973718;28;20023;-79
2022/07/01 07:00:57;;;;;;;3.38;2.20;;;17.90;1.00;;;;;;4972540;28;20018;-78
2022/07/01 07:03:23;;;;;;;2.13;1.88;;;18.00;1.00;;;;;;4972056;28;20041;-78
2022/07/01 07:05:49;;;;;;;1.85;1.67;;;18.20;1.00;;;;;;4972567;28;20018;-78
2022/07/01 07:08:15;;;;;;;3.38;1.45;;;17.90;1.00;;;;;;4972036;28;20035;-81
2022/07/01 07:10:41;;;;;;;1.50;1.40;;;17.80;1.00;;;;;;4972662;28;20486;-79
2022/07/01 07:13:07;;;;;;;2.03;1.58;;;17.90;1.00;;;;;;4972492;28;20027;-79
2022/07/01 07:15:33;;;;;;;3.33;1.48;;;18.20;1.00;;;;;;4972380;28;20022;-79
2022/07/01 07:17:58;;;;;;;1.10;1.00;;;18.20;1.00;;;;;;4971890;28;20078;-79
2022/07/01 07:20:25;;;;;;;1.48;1.00;;;18.30;1.00;;;;;;4972293;28;20034;-79
2022/07/01 07:22:50;;;;;;;1.88;1.00;;;18.20;1.00;;;;;;4973030;28;20398;-79
2022/07/01 07:25:16;;;;;;;0.80;0.80;;;18.00;1.00;;;;;;4973217;28;20073;-79
2022/07/01 07:27:45;;;;;;;2.58;0.93;;;18.20;1.00;;;;;;4971805;28;20050;-79
2022/07/01 07:30:14;;;;;;;1.90;0.95;;;18.40;1.00;;;;;;4972224;28;20880;-79
2022/07/01 07:32:40;;;;;;;3.45;0.70;;;18.60;1.00;;;;;;4972552;28;20043;-80
2022/07/01 07:35:06;;;;;;;0.70;0.70;;;18.60;1.00;;;;;;4971676;28;20097;-80
2022/07/01 07:37:33;;;;;;;1.10;0.73;;;18.60;1.00;;;;;;4972578;28;20035;-79
2022/07/01 07:40:01;;;;;;;0.52;0.52;;;18.70;1.00;;;;;;4971914;28;20043;-80
2022/07/01 07:42:27;;;;;;;1.30;0.70;;;19.00;1.00;;;;;;4972407;28;20125;-79
2022/07/01 07:44:53;;;;;;;0.60;0.60;;;19.20;1.00;;;;;;4971919;28;20031;-80
2022/07/01 07:47:19;;;;;;;2.35;0.70;;;18.90;1.00;;;;;;4971961;28;20082;-79
2022/07/01 07:49:44;;;;;;;2.05;0.80;;;19.00;1.00;;;;;;4954831;28;20089;-80
2022/07/01 07:52:10;;;;;;;0.60;0.60;;;18.80;1.00;;;;;;4972238;28;20038;-79
2022/07/01 07:54:36;;;;;;;1.42;0.70;;;18.60;1.00;;;;;;4972237;28;20038;-80
2022/07/01 07:57:02;;;;;;;1.48;0.70;;;18.50;1.00;;;;;;4971977;28;20451;-79
2022/07/01 07:59:27;;;;;;;0.95;0.63;;;18.70;1.00;;;;;;4972786;28;20054;-79
2022/07/01 08:01:54;;;;;;;2.50;0.90;;;18.70;1.00;;;;;;4973933;28;20490;-79
2022/07/01 08:04:20;;;;;;;2.15;0.70;;;19.40;1.00;;;;;;4976098;28;20487;-79
2022/07/01 08:06:45;;;;;;;3.15;0.70;;;19.20;1.00;;;;;;4975239;28;20046;-80
2022/07/01 08:09:11;;;;;;;2.97;0.88;;;19.30;1.00;;;;;;4975407;28;20495;-79
2022/07/01 08:11:37;;;;;;;1.33;0.80;;;19.40;1.00;;;;;;4975451;28;20062;-79
2022/07/01 08:14:03;;;;;;;1.02;0.70;;;19.50;1.00;;;;;;4975803;28;20414;-79
2022/07/01 08:16:29;;;;;;;1.67;0.98;;;19.50;1.00;;;;;;4975953;28;20026;-79
2022/07/01 08:18:55;;;;;;;2.50;0.70;;;19.50;1.00;;;;;;4974961;28;20491;-80
2022/07/01 08:21:21;;;;;;;1.13;0.70;;;19.80;1.00;;;;;;4975290;28;20038;-79
2022/07/01 08:23:47;;;;;;;1.65;0.63;;;20.30;1.00;;;;;;4975538;28;20386;-80
2022/07/01 08:26:14;;;;;;;1.75;0.80;;;20.70;1.00;;;;;;4975249;28;20117;-80
2022/07/01 08:28:40;;;;;;;3.58;0.77;;;20.60;1.00;;;;;;4976041;28;20030;-79
2022/07/01 08:31:05;;;;;;;3.05;0.70;;;20.60;1.00;;;;;;4974975;28;20434;-79
2022/07/01 08:33:31;;;;;;;2.83;0.80;;;20.60;1.00;;;;;;4974924;28;20038;-80
2022/07/01 08:35:57;;;;;;;1.63;0.82;;;20.70;1.00;;;;;;4975229;28;20031;-80
2022/07/01 08:38:22;;;;;;;1.63;0.80;;;20.70;1.00;;;;;;4957940;28;20558;-79
2022/07/01 08:40:48;;;;;;;1.35;0.80;;;20.90;1.00;;;;;;4974904;28;20047;-80
2022/07/01 08:43:14;;;;;;;4.68;0.85;;;21.00;1.00;;;;;;4975441;28;20073;-79
2022/07/01 08:45:39;;;;;;;1.23;0.60;;;20.80;1.00;;;;;;4974798;28;20046;-80
2022/07/01 08:48:06;;;;;;;3.80;1.02;;;20.70;1.00;;;;;;4974514;28;20525;-80
2022/07/01 08:50:37;;;;;;;3.03;1.02;;;20.60;1.00;;;;;;4975171;28;20050;-79
2022/07/01 08:53:04;;;;;;;1.08;0.68;;;20.60;1.00;;;;;;4974930;28;20049;-80
2022/07/01 08:55:30;;;;;;;2.10;0.93;;;20.70;1.00;;;;;;4975279;28;20102;-80
2022/07/01 08:57:56;;;;;;;2.40;0.80;;;21.00;1.00;;;;;;4974626;28;20058;-80
2022/07/01 09:00:22;;;;;;;1.23;0.68;;;21.20;1.00;;;;;;4975088;28;20387;-79
2022/07/01 09:02:53;;;;;;;3.17;0.80;;;21.10;1.00;;;;;;4974348;28;20110;-80
2022/07/01 09:05:20;;;;;;;3.38;1.13;;;21.80;1.00;;;;;;4974573;28;20054;-79
2022/07/01 09:07:47;;;;;;;2.80;1.15;;;21.80;1.00;;;;;;4974917;28;20073;-80
2022/07/01 09:10:17;;;;;;;2.58;0.98;;;21.10;1.00;;;;;;4974752;28;20019;-80
2022/07/01 09:12:43;;;;;;;1.13;0.73;;;20.80;1.00;;;;;;4973103;28;20035;-80
2022/07/01 09:15:20;;;;;;;1.67;0.80;;;20.40;1.00;;;;;;4973882;28;20026;-80
2022/07/01 09:17:46;;;;;;;2.15;0.93;;;20.40;1.00;;;;;;4973801;28;20459;-81
2022/07/01 09:20:33;;;;;;;1.83;1.00;;;20.70;1.00;;;;;;4974486;28;20161;-81
2022/07/01 09:23:11;;;;;;;1.50;0.70;;;20.80;1.00;;;;;;4972832;28;20026;-81
2022/07/01 09:25:39;;;;;;;2.08;0.93;;;21.30;1.00;;;;;;4975246;28;20421;-79
2022/07/01 09:28:07;;;;;;;2.15;0.82;;;21.60;1.00;;;;;;4957157;28;20449;-79
2022/07/01 09:30:33;;;;;;;1.95;1.08;;;21.60;1.00;;;;;;4973993;28;20030;-79
2022/07/01 09:33:10;;;;;;;3.20;0.85;;;21.60;1.00;;;;;;4973598;28;20547;-80
2022/07/01 09:35:36;;;;;;;1.45;0.80;;;21.90;1.00;;;;;;4974451;28;20546;-80
2022/07/01 09:38:05;;;;;;;1.38;0.70;;;21.80;1.00;;;;;;4973781;28;22458;-80
2022/07/01 09:40:51;;;;;;;4.20;0.88;;;22.00;1.00;;;;;;4974446;28;20483;-80
2022/07/01 09:43:25;;;;;;;1.75;0.60;;;22.10;1.00;;;;;;4973905;28;20549;-80
2022/07/01 09:45:51;;;;;;;1.55;0.85;;;22.10;1.00;;;;;;4981702;28;20030;-81
2022/07/01 09:48:17;;;;;;;3.55;1.00;;;22.00;1.00;;;;;;4980118;28;20383;-80
2022/07/01 09:50:44;;;;;;;4.10;1.02;;;22.10;1.00;;;;;;4973550;28;20034;-80
2022/07/01 09:53:10;;;;;;;1.77;0.80;;;21.80;1.00;;;;;;4960917;28;20026;-80
2022/07/01 09:55:37;;;;;;;3.13;1.13;;;22.00;1.00;;;;;;4974182;28;20023;-80
2022/07/01 09:58:02;;;;;;;1.63;0.60;;;22.60;1.00;;;;;;4974039;28;20031;-80
2022/07/01 10:00:31;;;;;;;2.53;0.75;;;22.70;1.00;;;;;;4973100;28;20377;-80
2022/07/01 10:02:59;;;;;;;1.58;0.80;;;22.90;1.00;;;;;;4973978;28;20026;-80
2022/07/01 10:05:26;;;;;;;1.70;0.70;;;23.10;1.00;;;;;;4973354;28;20027;-80
2022/07/01 10:07:59;;;;;;;2.88;0.63;;;23.00;1.00;;;;;;4973336;28;20027;-79
2022/07/01 10:10:54;;;;;;;5.18;1.10;;;22.90;1.00;;;;;;4972655;28;20530;-79
2022/07/01 10:13:25;;;;;;;2.30;0.70;;;22.60;1.00;;;;;;4974618;28;20030;-80
2022/07/01 10:15:53;;;;;;;1.75;0.80;;;23.50;1.00;;;;;;4974103;28;20019;-80
2022/07/01 10:18:27;;;;;;;2.53;0.80;;;23.40;1.00;;;;;;4973232;28;20035;-80
2022/07/01 10:20:55;;;;;;;2.05;0.95;;;23.40;1.00;;;;;;4973207;28;20033;-80
2022/07/01 10:23:23;;;;;;;9.05;1.48;;;23.30;1.00;;;;;;4973082;28;20089;-81
2022/07/01 10:25:53;;;;;;;3.22;0.90;;;23.60;1.00;;;;;;4973046;28;20102;-81
2022/07/01 10:28:19;;;;;;;1.98;0.70;;;23.90;1.00;;;;;;4973192;28;20034;-80
2022/07/01 10:30:56;;;;;;;4.13;0.95;;;23.50;1.00;;;;;;4972464;28;20065;-81
2022/07/01 10:33:34;;;;;;;1.65;0.82;;;23.60;1.00;;;;;;4972777;28;20038;-81
2022/07/01 10:36:08;;;;;;;3.13;0.70;;;23.60;1.00;;;;;;4972676;28;20023;-80
2022/07/01 10:38:34;;;;;;;1.75;0.75;;;23.20;1.00;;;;;;4972962;28;20530;-80
2022/07/01 10:41:09;;;;;;;2.20;0.85;;;23.50;1.00;;;;;;4972616;28;20045;-80
2022/07/01 10:43:37;;;;;;;1.67;0.90;;;23.80;1.00;;;;;;4973147;28;20496;-80
2022/07/01 10:46:04;;;;;;;1.38;0.60;;;24.30;1.00;;;;;;4973318;28;20564;-80
2022/07/01 10:48:34;;;;;;;2.83;0.80;;;24.30;1.00;;;;;;4972979;28;20113;-80
2022/07/01 10:51:00;;;;;;;2.45;0.88;;;24.00;1.00;;;;;;4972555;28;20022;-80
2022/07/01 10:53:50;;;;;;;1.73;0.80;;;23.80;1.00;;;;;;4972811;28;20146;-80
2022/07/01 10:56:17;;;;;;;4.93;2.13;;;24.10;1.00;;;;;;4957366;28;20426;-80
2022/07/01 10:58:43;;;;;;;1.90;1.20;;;24.70;1.00;;;;;;4972549;28;20109;-79
2022/07/01 11:01:08;;;;;;;2.65;1.10;;;24.60;1.00;;;;;;4972827;28;20113;-80
2022/07/01 11:03:39;;;;;;;1.08;0.73;;;24.70;1.00;;;;;;4972646;28;20015;-80
2022/07/01 11:06:05;;;;;;;0.98;0.60;;;25.10;1.00;;;;;;4972511;28;20038;-80
2022/07/01 11:08:30;;;;;;;2.05;0.75;;;25.10;1.00;;;;;;4972427;28;20356;-80
2022/07/01 11:10:58;;;;;;;3.50;1.10;;;25.30;1.00;;;;;;4972111;28;20125;-80
2022/07/01 11:13:26;;;;;;;4.03;0.70;;;24.80;1.00;;;;;;4971533;28;20042;-80
2022/07/01 11:15:52;;;;;;;1.65;0.80;;;24.50;1.00;;;;;;4972369;28;20019;-80
2022/07/01 11:18:19;;;;;;;1.13;0.80;;;24.90;1.00;;;;;;4972382;28;20090;-80
2022/07/01 11:20:45;;;;;;;2.58;0.80;;;25.10;1.00;;;;;;4972751;28;20046;-80
2022/07/01 11:23:12;;;;;;;1.20;0.68;;;24.70;1.00;;;;;;4972665;28;20089;-80
2022/07/01 11:25:37;;;;;;;2.15;0.70;;;24.60;1.00;;;;;;4972709;28;20030;-80
2022/07/01 11:28:03;;;;;;;2.58;1.10;;;24.40;1.00;;;;;;4972352;28;20038;-80
2022/07/01 11:30:30;;;;;;;0.60;0.50;;;24.30;1.00;;;;;;4972327;28;20471;-80
2022/07/01 11:32:57;;;;;;;1.63;0.55;;;24.00;1.00;;;;;;4972211;28;20479;-80
2022/07/01 11:41:05;;;;;;;2.30;0.80;;;24.10;1.00;;;;;;4974846;28;20129;-80
2022/07/01 11:43:33;;;;;;;1.88;0.70;;;24.40;1.00;;;;;;4976474;28;20023;-80
2022/07/01 11:46:01;;;;;;;4.05;0.82;;;24.90;1.00;;;;;;4975840;28;20027;-80
2022/07/01 11:48:42;;;;;;;1.48;1.00;;;24.60;1.00;;;;;;4975899;28;20022;-80
2022/07/01 11:51:09;;;;;;;1.63;0.68;;;24.60;1.00;;;;;;4975730;28;20384;-80
2022/07/01 11:53:36;;;;;;;1.42;0.82;;;24.70;1.00;;;;;;4976249;28;20553;-80
2022/07/01 11:56:02;;;;;;;2.63;0.80;;;24.70;1.00;;;;;;4975488;28;20022;-80
2022/07/01 11:58:51;;;;;;;1.20;0.77;;;24.70;1.00;;;;;;4976296;28;20094;-80
2022/07/01 12:01:34;;;;;;;1.70;0.75;;;24.20;1.00;;;;;;4975536;28;20039;-79
2022/07/01 12:04:03;;;;;;;3.90;0.73;;;24.10;1.00;;;;;;4976337;28;20106;-79
2022/07/01 12:06:29;;;;;;;1.25;0.70;;;24.20;1.00;;;;;;4975858;28;20033;-79
2022/07/01 12:08:56;;;;;;;1.55;0.70;;;24.50;1.00;;;;;;4975121;28;20038;-80
2022/07/01 12:11:24;;;;;;;0.90;0.70;;;24.50;1.00;;;;;;4975679;28;20101;-79
2022/07/01 12:13:50;;;;;;;1.00;0.60;;;24.30;1.00;;;;;;4975646;28;20550;-80
2022/07/01 12:16:17;;;;;;;3.33;0.65;;;25.20;1.00;;;;;;4975972;28;20035;-79
2022/07/01 12:19:00;;;;;;;1.42;0.70;;;29.80;1.00;;;;;;4975219;28;20030;-80
2022/07/01 12:21:28;;;;;;;1.52;0.70;;;31.00;1.00;;;;;;4975547;28;20035;-80
2022/07/01 12:24:07;;;;;;;0.80;0.63;;;32.50;1.00;;;;;;4974895;28;20019;-80
2022/07/01 12:26:33;;;;;;;0.90;0.60;;;33.40;1.00;;;;;;4975073;28;20125;-80
2022/07/01 12:28:58;;;;;;;1.40;0.70;;;33.50;1.00;;;;;;4975164;28;20103;-80
2022/07/01 12:31:24;;;;;;;0.52;0.47;;;34.60;1.00;;;;;;4975601;28;20042;-80
2022/07/01 12:33:52;;;;;;;1.08;0.50;;;34.70;1.00;;;;;;4974762;28;20019;-80
2022/07/01 12:36:17;;;;;;;1.65;0.85;;;35.30;1.00;;;;;;4974958;28;20026;-80
2022/07/01 12:38:43;;;;;;;2.40;0.65;;;34.40;1.00;;;;;;4974656;28;20106;-80
2022/07/01 12:41:29;;;;;;;0.63;0.60;;;34.60;1.00;;;;;;4974714;28;20127;-80
2022/07/01 12:43:55;;;;;;;1.17;0.43;;;34.30;1.00;;;;;;4973107;28;20034;-80
2022/07/01 12:46:30;;;;;;;1.60;0.55;;;31.20;1.00;;;;;;4975426;28;20031;-80
2022/07/01 12:48:57;;;;;;;1.05;0.57;;;30.60;1.00;;;;;;4974635;28;20130;-80
2022/07/01 12:51:31;;;;;;;2.00;0.77;;;29.20;1.00;;;;;;4974939;28;20030;-80
2022/07/01 12:53:57;;;;;;;2.35;0.57;;;31.60;1.00;;;;;;4974795;28;20443;-80
2022/07/01 12:56:25;;;;;;;1.65;0.80;;;33.40;1.00;;;;;;4974436;28;20030;-80
2022/07/01 12:58:54;;;;;;;1.15;0.50;;;33.70;1.00;;;;;;4974721;28;20030;-80
2022/07/01 13:01:21;;;;;;;1.23;0.50;;;33.00;1.00;;;;;;4975120;28;20030;-80
2022/07/01 13:03:47;;;;;;;4.50;0.90;;;33.00;1.00;;;;;;4974441;28;20077;-80
2022/07/01 13:06:12;;;;;;;0.63;0.52;;;33.50;1.00;;;;;;4974238;28;20035;-80
2022/07/01 13:08:38;;;;;;;1.00;0.60;;;33.40;1.00;;;;;;4974256;28;20030;-80
2022/07/01 13:11:05;;;;;;;1.10;0.70;;;33.50;1.00;;;;;;4974562;28;20039;-80
2022/07/01 13:13:31;;;;;;;1.55;0.70;;;33.80;1.00;;;;;;4975045;28;20038;-80